Archival Weather

Norman Y Mineta San Jose Intl

San Jose, California (KSJC)

Report from: Wednesday, April 3, 2024 1:53 PM PDT
Current time: Tuesday, May 21, 2024 8:57 AM PDT

Current weather – Weather history – Daily summaries
Weather forecast

Temperature18.9°C (66.0°F)
Dew point10.6°C (51.1°F)
Winds 11 kts (5.7 m/s, 12.7 mph) West-Northwest (300°)
Visibility10 mi. (16.1 km)
Clouds Few clouds 1,900 ft. (579 m)
Few clouds 3,300 ft. (1,006 m)
Few clouds 8,000 ft. (2,438 m)
Altimeter30.12 in.Hg (1020 mB)
Relative humidity59 %
Density altitude418 ft. (127 m)
Sea-level pressure102.0 kPa (1020 mB, 30.11 in.Hg)
Remarks Automated weather observing station with precipitation discriminator
Pressure falling more slowly
Flight conditions Visual Meteorological Conditions
Raw dataKSJC 032053Z 30011KT 10SM FEW019 FEW033 FEW080 19/11 A3012 RMK AO2 SLP198 T01890106 56023
An error has occurred. This application may no longer respond until reloaded. Reload 🗙